sensor_id;sensor_type;location;lat;lon;timestamp;P1;durP1;ratioP1;P2;durP2;ratioP2
5519;SDS011;2782;52.362;10.012;2022-07-24T00:02:56;313.57;;;143.17;;
5519;SDS011;2782;52.362;10.012;2022-07-24T00:09:38;313.07;;;143.43;;
5519;SDS011;2782;52.362;10.012;2022-07-24T00:16:23;294.70;;;134.17;;
5519;SDS011;2782;52.362;10.012;2022-07-24T00:23:05;266.53;;;127.77;;
5519;SDS011;2782;52.362;10.012;2022-07-24T00:29:47;270.47;;;121.77;;
5519;SDS011;2782;52.362;10.012;2022-07-24T00:36:30;252.70;;;118.77;;
5519;SDS011;2782;52.362;10.012;2022-07-24T00:43:16;250.67;;;113.77;;
5519;SDS011;2782;52.362;10.012;2022-07-24T00:49:58;243.97;;;114.93;;
5519;SDS011;2782;52.362;10.012;2022-07-24T00:56:43;218.57;;;103.40;;
5519;SDS011;2782;52.362;10.012;2022-07-24T01:03:27;217.23;;;98.60;;
5519;SDS011;2782;52.362;10.012;2022-07-24T01:10:10;206.03;;;96.17;;
5519;SDS011;2782;52.362;10.012;2022-07-24T01:16:54;207.00;;;101.67;;
5519;SDS011;2782;52.362;10.012;2022-07-24T01:23:38;191.77;;;92.53;;
5519;SDS011;2782;52.362;10.012;2022-07-24T01:30:21;181.90;;;87.10;;
5519;SDS011;2782;52.362;10.012;2022-07-24T01:37:03;179.07;;;84.73;;
5519;SDS011;2782;52.362;10.012;2022-07-24T01:43:46;176.53;;;84.33;;
5519;SDS011;2782;52.362;10.012;2022-07-24T01:50:29;170.70;;;80.97;;
5519;SDS011;2782;52.362;10.012;2022-07-24T01:57:12;152.67;;;69.87;;
5519;SDS011;2782;52.362;10.012;2022-07-24T02:03:55;137.30;;;65.67;;
5519;SDS011;2782;52.362;10.012;2022-07-24T02:10:37;138.47;;;68.13;;
5519;SDS011;2782;52.362;10.012;2022-07-24T02:17:25;140.17;;;66.00;;
5519;SDS011;2782;52.362;10.012;2022-07-24T02:24:09;136.77;;;64.40;;
5519;SDS011;2782;52.362;10.012;2022-07-24T02:30:50;140.20;;;61.30;;
5519;SDS011;2782;52.362;10.012;2022-07-24T02:37:32;112.90;;;56.80;;
5519;SDS011;2782;52.362;10.012;2022-07-24T02:44:23;116.10;;;54.10;;
5519;SDS011;2782;52.362;10.012;2022-07-24T02:51:05;109.80;;;54.70;;
5519;SDS011;2782;52.362;10.012;2022-07-24T02:57:47;103.70;;;50.40;;
5519;SDS011;2782;52.362;10.012;2022-07-24T03:04:30;99.83;;;52.83;;
5519;SDS011;2782;52.362;10.012;2022-07-24T03:11:12;101.03;;;50.57;;
5519;SDS011;2782;52.362;10.012;2022-07-24T03:17:54;96.70;;;48.23;;
5519;SDS011;2782;52.362;10.012;2022-07-24T03:24:39;87.30;;;44.80;;
5519;SDS011;2782;52.362;10.012;2022-07-24T03:31:24;82.17;;;41.60;;
5519;SDS011;2782;52.362;10.012;2022-07-24T03:38:06;78.17;;;41.80;;
5519;SDS011;2782;52.362;10.012;2022-07-24T03:44:50;82.60;;;41.83;;
5519;SDS011;2782;52.362;10.012;2022-07-24T03:51:32;71.87;;;38.27;;
5519;SDS011;2782;52.362;10.012;2022-07-24T03:58:15;73.50;;;38.90;;
5519;SDS011;2782;52.362;10.012;2022-07-24T04:04:58;72.50;;;36.60;;
5519;SDS011;2782;52.362;10.012;2022-07-24T04:11:40;65.23;;;36.80;;
5519;SDS011;2782;52.362;10.012;2022-07-24T04:18:25;67.33;;;35.20;;
5519;SDS011;2782;52.362;10.012;2022-07-24T04:25:10;54.83;;;30.43;;
5519;SDS011;2782;52.362;10.012;2022-07-24T04:31:54;55.77;;;31.23;;
5519;SDS011;2782;52.362;10.012;2022-07-24T04:38:36;55.53;;;27.70;;
5519;SDS011;2782;52.362;10.012;2022-07-24T04:45:22;46.80;;;25.83;;
5519;SDS011;2782;52.362;10.012;2022-07-24T04:52:04;58.53;;;33.03;;
5519;SDS011;2782;52.362;10.012;2022-07-24T04:58:46;46.53;;;26.03;;
5519;SDS011;2782;52.362;10.012;2022-07-24T05:05:35;21.93;;;12.87;;
5519;SDS011;2782;52.362;10.012;2022-07-24T05:12:20;31.60;;;18.40;;
5519;SDS011;2782;52.362;10.012;2022-07-24T05:19:02;33.30;;;19.33;;
5519;SDS011;2782;52.362;10.012;2022-07-24T05:25:47;35.73;;;20.27;;
5519;SDS011;2782;52.362;10.012;2022-07-24T05:32:28;33.70;;;20.50;;
5519;SDS011;2782;52.362;10.012;2022-07-24T05:39:13;33.50;;;19.77;;
5519;SDS011;2782;52.362;10.012;2022-07-24T05:45:57;32.93;;;19.00;;
5519;SDS011;2782;52.362;10.012;2022-07-24T05:52:39;33.43;;;19.10;;
5519;SDS011;2782;52.362;10.012;2022-07-24T05:59:21;33.13;;;17.47;;
5519;SDS011;2782;52.362;10.012;2022-07-24T06:06:05;27.60;;;17.17;;
5519;SDS011;2782;52.362;10.012;2022-07-24T06:12:47;26.80;;;16.13;;
5519;SDS011;2782;52.362;10.012;2022-07-24T06:19:29;33.50;;;17.00;;
5519;SDS011;2782;52.362;10.012;2022-07-24T06:26:13;31.47;;;17.50;;
5519;SDS011;2782;52.362;10.012;2022-07-24T06:32:56;28.23;;;16.50;;
5519;SDS011;2782;52.362;10.012;2022-07-24T06:39:39;27.80;;;17.50;;
5519;SDS011;2782;52.362;10.012;2022-07-24T06:46:23;25.67;;;15.10;;
5519;SDS011;2782;52.362;10.012;2022-07-24T06:53:04;27.17;;;16.50;;
5519;SDS011;2782;52.362;10.012;2022-07-24T06:59:46;27.20;;;16.17;;
5519;SDS011;2782;52.362;10.012;2022-07-24T07:06:30;26.00;;;15.73;;
5519;SDS011;2782;52.362;10.012;2022-07-24T07:13:13;25.80;;;15.83;;
5519;SDS011;2782;52.362;10.012;2022-07-24T07:19:55;22.67;;;14.10;;
5519;SDS011;2782;52.362;10.012;2022-07-24T07:26:39;23.20;;;15.23;;
5519;SDS011;2782;52.362;10.012;2022-07-24T07:33:21;22.03;;;14.03;;
5519;SDS011;2782;52.362;10.012;2022-07-24T07:40:03;19.70;;;13.30;;
5519;SDS011;2782;52.362;10.012;2022-07-24T07:46:47;21.00;;;13.40;;
5519;SDS011;2782;52.362;10.012;2022-07-24T07:53:29;22.90;;;13.67;;
5519;SDS011;2782;52.362;10.012;2022-07-24T08:00:12;21.10;;;13.17;;
5519;SDS011;2782;52.362;10.012;2022-07-24T08:06:56;20.57;;;13.17;;
5519;SDS011;2782;52.362;10.012;2022-07-24T08:13:38;21.60;;;12.30;;
5519;SDS011;2782;52.362;10.012;2022-07-24T08:20:21;20.47;;;12.50;;
5519;SDS011;2782;52.362;10.012;2022-07-24T08:27:04;18.57;;;12.40;;
5519;SDS011;2782;52.362;10.012;2022-07-24T08:33:45;19.97;;;12.40;;
5519;SDS011;2782;52.362;10.012;2022-07-24T08:40:29;19.50;;;12.57;;
5519;SDS011;2782;52.362;10.012;2022-07-24T08:47:16;18.53;;;11.90;;
5519;SDS011;2782;52.362;10.012;2022-07-24T08:54:00;18.13;;;12.20;;
5519;SDS011;2782;52.362;10.012;2022-07-24T09:00:43;15.17;;;11.07;;
5519;SDS011;2782;52.362;10.012;2022-07-24T09:07:29;14.27;;;10.53;;
5519;SDS011;2782;52.362;10.012;2022-07-24T09:14:12;15.20;;;10.80;;
5519;SDS011;2782;52.362;10.012;2022-07-24T09:21:13;17.33;;;11.67;;
5519;SDS011;2782;52.362;10.012;2022-07-24T09:27:57;12.50;;;9.93;;
5519;SDS011;2782;52.362;10.012;2022-07-24T09:34:41;17.37;;;11.70;;
5519;SDS011;2782;52.362;10.012;2022-07-24T09:41:24;15.90;;;10.40;;
5519;SDS011;2782;52.362;10.012;2022-07-24T09:48:11;14.87;;;9.70;;
5519;SDS011;2782;52.362;10.012;2022-07-24T09:54:53;12.50;;;9.43;;
5519;SDS011;2782;52.362;10.012;2022-07-24T10:01:35;13.47;;;9.53;;
5519;SDS011;2782;52.362;10.012;2022-07-24T10:08:27;13.93;;;9.70;;
5519;SDS011;2782;52.362;10.012;2022-07-24T10:15:10;13.00;;;9.23;;
5519;SDS011;2782;52.362;10.012;2022-07-24T10:21:53;10.83;;;7.83;;
5519;SDS011;2782;52.362;10.012;2022-07-24T10:28:38;11.70;;;6.67;;
5519;SDS011;2782;52.362;10.012;2022-07-24T10:35:26;7.80;;;5.77;;
5519;SDS011;2782;52.362;10.012;2022-07-24T10:42:13;9.13;;;5.40;;
5519;SDS011;2782;52.362;10.012;2022-07-24T10:48:57;7.90;;;5.30;;
5519;SDS011;2782;52.362;10.012;2022-07-24T10:55:40;8.13;;;4.90;;
5519;SDS011;2782;52.362;10.012;2022-07-24T11:02:29;6.23;;;4.67;;
5519;SDS011;2782;52.362;10.012;2022-07-24T11:09:14;8.40;;;4.77;;
5519;SDS011;2782;52.362;10.012;2022-07-24T11:23:01;5.40;;;3.77;;
5519;SDS011;2782;52.362;10.012;2022-07-24T11:30:02;4.70;;;2.90;;
5519;SDS011;2782;52.362;10.012;2022-07-24T11:36:48;6.27;;;3.63;;
5519;SDS011;2782;52.362;10.012;2022-07-24T11:43:33;6.80;;;3.30;;
5519;SDS011;2782;52.362;10.012;2022-07-24T11:50:19;4.90;;;3.70;;
5519;SDS011;2782;52.362;10.012;2022-07-24T11:57:02;2.80;;;2.60;;
5519;SDS011;2782;52.362;10.012;2022-07-24T12:03:48;5.23;;;3.27;;
5519;SDS011;2782;52.362;10.012;2022-07-24T12:10:31;3.53;;;2.90;;
5519;SDS011;2782;52.362;10.012;2022-07-24T12:17:14;7.37;;;3.40;;
5519;SDS011;2782;52.362;10.012;2022-07-24T12:23:56;3.43;;;3.13;;
5519;SDS011;2782;52.362;10.012;2022-07-24T12:30:39;4.17;;;3.00;;
5519;SDS011;2782;52.362;10.012;2022-07-24T12:37:23;3.37;;;3.17;;
5519;SDS011;2782;52.362;10.012;2022-07-24T12:44:05;3.63;;;2.93;;
5519;SDS011;2782;52.362;10.012;2022-07-24T12:51:07;3.30;;;2.97;;
5519;SDS011;2782;52.362;10.012;2022-07-24T12:57:56;3.13;;;2.80;;
5519;SDS011;2782;52.362;10.012;2022-07-24T13:04:43;2.90;;;2.60;;
5519;SDS011;2782;52.362;10.012;2022-07-24T13:11:27;4.23;;;3.23;;
5519;SDS011;2782;52.362;10.012;2022-07-24T13:18:10;3.43;;;2.93;;
5519;SDS011;2782;52.362;10.012;2022-07-24T13:24:51;2.60;;;2.40;;
5519;SDS011;2782;52.362;10.012;2022-07-24T13:31:35;3.03;;;2.63;;
5519;SDS011;2782;52.362;10.012;2022-07-24T13:38:17;3.20;;;2.90;;
5519;SDS011;2782;52.362;10.012;2022-07-24T13:44:59;4.63;;;3.00;;
5519;SDS011;2782;52.362;10.012;2022-07-24T13:51:42;2.67;;;2.47;;
5519;SDS011;2782;52.362;10.012;2022-07-24T13:58:24;5.23;;;3.07;;
5519;SDS011;2782;52.362;10.012;2022-07-24T14:05:06;2.97;;;2.47;;
5519;SDS011;2782;52.362;10.012;2022-07-24T14:11:51;2.40;;;2.20;;
5519;SDS011;2782;52.362;10.012;2022-07-24T14:18:35;2.83;;;2.63;;
5519;SDS011;2782;52.362;10.012;2022-07-24T14:25:17;4.83;;;2.90;;
5519;SDS011;2782;52.362;10.012;2022-07-24T14:32:01;2.53;;;2.33;;
5519;SDS011;2782;52.362;10.012;2022-07-24T14:38:43;3.20;;;2.50;;
5519;SDS011;2782;52.362;10.012;2022-07-24T14:45:26;2.67;;;2.43;;
5519;SDS011;2782;52.362;10.012;2022-07-24T14:52:09;2.67;;;2.17;;
5519;SDS011;2782;52.362;10.012;2022-07-24T14:58:52;2.80;;;2.50;;
5519;SDS011;2782;52.362;10.012;2022-07-24T15:05:34;8.47;;;3.60;;
5519;SDS011;2782;52.362;10.012;2022-07-24T15:12:17;8.27;;;3.57;;
5519;SDS011;2782;52.362;10.012;2022-07-24T15:18:59;3.80;;;3.40;;
5519;SDS011;2782;52.362;10.012;2022-07-24T15:25:41;6.10;;;3.50;;
5519;SDS011;2782;52.362;10.012;2022-07-24T15:32:25;5.00;;;3.77;;
5519;SDS011;2782;52.362;10.012;2022-07-24T15:39:08;1284.63;;;763.97;;
5519;SDS011;2782;52.362;10.012;2022-07-24T15:45:51;926.30;;;580.13;;
5519;SDS011;2782;52.362;10.012;2022-07-24T15:52:34;638.33;;;377.57;;
5519;SDS011;2782;52.362;10.012;2022-07-24T16:06:44;621.87;;;346.53;;
5519;SDS011;2782;52.362;10.012;2022-07-24T16:13:29;566.63;;;300.10;;
5519;SDS011;2782;52.362;10.012;2022-07-24T16:20:31;481.33;;;241.80;;
5519;SDS011;2782;52.362;10.012;2022-07-24T16:34:46;347.53;;;151.70;;
5519;SDS011;2782;52.362;10.012;2022-07-24T16:41:35;221.20;;;101.83;;
5519;SDS011;2782;52.362;10.012;2022-07-24T16:48:17;253.83;;;114.13;;
5519;SDS011;2782;52.362;10.012;2022-07-24T16:55:00;157.30;;;66.73;;
5519;SDS011;2782;52.362;10.012;2022-07-24T17:01:42;119.73;;;53.97;;
5519;SDS011;2782;52.362;10.012;2022-07-24T17:08:23;108.40;;;51.63;;
5519;SDS011;2782;52.362;10.012;2022-07-24T17:15:08;93.33;;;46.90;;
5519;SDS011;2782;52.362;10.012;2022-07-24T17:21:57;79.13;;;36.07;;
5519;SDS011;2782;52.362;10.012;2022-07-24T17:28:41;42.40;;;22.90;;
5519;SDS011;2782;52.362;10.012;2022-07-24T17:35:24;28.40;;;15.80;;
5519;SDS011;2782;52.362;10.012;2022-07-24T17:42:06;25.83;;;15.37;;
5519;SDS011;2782;52.362;10.012;2022-07-24T17:48:50;23.67;;;11.60;;
5519;SDS011;2782;52.362;10.012;2022-07-24T17:55:34;12.50;;;8.87;;
5519;SDS011;2782;52.362;10.012;2022-07-24T18:02:16;13.20;;;8.53;;
5519;SDS011;2782;52.362;10.012;2022-07-24T18:08:58;12.60;;;8.03;;
5519;SDS011;2782;52.362;10.012;2022-07-24T18:15:42;13.10;;;7.53;;
5519;SDS011;2782;52.362;10.012;2022-07-24T18:22:25;11.50;;;7.53;;
5519;SDS011;2782;52.362;10.012;2022-07-24T18:29:07;11.87;;;6.50;;
5519;SDS011;2782;52.362;10.012;2022-07-24T18:35:50;12.87;;;6.50;;
5519;SDS011;2782;52.362;10.012;2022-07-24T18:42:33;16.50;;;7.37;;
5519;SDS011;2782;52.362;10.012;2022-07-24T18:49:19;16.83;;;6.70;;
5519;SDS011;2782;52.362;10.012;2022-07-24T18:56:07;9.60;;;5.97;;
5519;SDS011;2782;52.362;10.012;2022-07-24T19:10:31;12.00;;;6.47;;
5519;SDS011;2782;52.362;10.012;2022-07-24T20:02:56;16.23;;;5.53;;
5519;SDS011;2782;52.362;10.012;2022-07-24T20:09:38;6.57;;;5.07;;
5519;SDS011;2782;52.362;10.012;2022-07-24T20:16:20;6.83;;;5.03;;
5519;SDS011;2782;52.362;10.012;2022-07-24T20:23:03;7.10;;;4.93;;
5519;SDS011;2782;52.362;10.012;2022-07-24T20:29:46;8.60;;;5.77;;
5519;SDS011;2782;52.362;10.012;2022-07-24T20:36:27;5.00;;;4.50;;
5519;SDS011;2782;52.362;10.012;2022-07-24T20:43:10;7.43;;;5.30;;
5519;SDS011;2782;52.362;10.012;2022-07-24T20:49:55;9.90;;;5.30;;
5519;SDS011;2782;52.362;10.012;2022-07-24T20:56:37;19.27;;;5.20;;
5519;SDS011;2782;52.362;10.012;2022-07-24T21:03:22;9.70;;;5.97;;
5519;SDS011;2782;52.362;10.012;2022-07-24T21:10:09;13.83;;;5.60;;
5519;SDS011;2782;52.362;10.012;2022-07-24T21:24:35;10.63;;;6.07;;
5519;SDS011;2782;52.362;10.012;2022-07-24T21:46:50;7.10;;;5.47;;
5519;SDS011;2782;52.362;10.012;2022-07-24T21:53:31;6.23;;;4.93;;
5519;SDS011;2782;52.362;10.012;2022-07-24T22:00:14;6.87;;;5.67;;
5519;SDS011;2782;52.362;10.012;2022-07-24T22:06:57;9.70;;;5.80;;
5519;SDS011;2782;52.362;10.012;2022-07-24T22:13:40;11.47;;;5.10;;
5519;SDS011;2782;52.362;10.012;2022-07-24T22:20:22;11.60;;;5.70;;
5519;SDS011;2782;52.362;10.012;2022-07-24T22:27:06;15.90;;;6.10;;
5519;SDS011;2782;52.362;10.012;2022-07-24T22:33:48;19.97;;;5.70;;
5519;SDS011;2782;52.362;10.012;2022-07-24T22:40:30;20.80;;;6.87;;
5519;SDS011;2782;52.362;10.012;2022-07-24T22:47:14;7.80;;;5.53;;
5519;SDS011;2782;52.362;10.012;2022-07-24T22:53:56;14.87;;;4.90;;
5519;SDS011;2782;52.362;10.012;2022-07-24T23:00:40;9.13;;;4.10;;
5519;SDS011;2782;52.362;10.012;2022-07-24T23:07:23;8.60;;;4.30;;
5519;SDS011;2782;52.362;10.012;2022-07-24T23:14:04;16.37;;;4.77;;
5519;SDS011;2782;52.362;10.012;2022-07-24T23:20:49;16.13;;;5.00;;
5519;SDS011;2782;52.362;10.012;2022-07-24T23:27:35;11.43;;;4.33;;
5519;SDS011;2782;52.362;10.012;2022-07-24T23:34:28;12.37;;;4.87;;
5519;SDS011;2782;52.362;10.012;2022-07-24T23:41:10;10.60;;;4.40;;
5519;SDS011;2782;52.362;10.012;2022-07-24T23:47:54;12.13;;;4.67;;
5519;SDS011;2782;52.362;10.012;2022-07-24T23:54:42;11.50;;;4.20;;
